sensor_id;sensor_type;location;lat;lon;timestamp;temperature;humidity
4187;DHT22;2107;52.306;10.484;2023-07-20T00:02:23;15.20;1.00
4187;DHT22;2107;52.306;10.484;2023-07-20T00:04:50;15.20;1.00
4187;DHT22;2107;52.306;10.484;2023-07-20T00:07:18;15.20;1.00
4187;DHT22;2107;52.306;10.484;2023-07-20T00:09:45;15.20;1.00
4187;DHT22;2107;52.306;10.484;2023-07-20T00:12:13;15.10;68.70
4187;DHT22;2107;52.306;10.484;2023-07-20T00:14:40;15.10;99.90
4187;DHT22;2107;52.306;10.484;2023-07-20T00:17:07;15.10;99.90
4187;DHT22;2107;52.306;10.484;2023-07-20T00:19:34;15.00;99.90
4187;DHT22;2107;52.306;10.484;2023-07-20T00:22:01;14.80;99.90
4187;DHT22;2107;52.306;10.484;2023-07-20T00:24:31;14.80;99.90
4187;DHT22;2107;52.306;10.484;2023-07-20T00:26:59;14.60;1.00
4187;DHT22;2107;52.306;10.484;2023-07-20T00:29:26;14.60;99.90
4187;DHT22;2107;52.306;10.484;2023-07-20T00:31:53;14.50;99.90
4187;DHT22;2107;52.306;10.484;2023-07-20T00:34:20;14.40;1.00
4187;DHT22;2107;52.306;10.484;2023-07-20T00:36:47;14.40;17.80
4187;DHT22;2107;52.306;10.484;2023-07-20T00:39:14;14.40;99.90
4187;DHT22;2107;52.306;10.484;2023-07-20T00:41:42;14.20;99.90
4187;DHT22;2107;52.306;10.484;2023-07-20T00:44:09;14.10;1.00
4187;DHT22;2107;52.306;10.484;2023-07-20T00:46:36;14.10;99.90
4187;DHT22;2107;52.306;10.484;2023-07-20T00:49:04;14.10;1.00
4187;DHT22;2107;52.306;10.484;2023-07-20T00:51:31;14.10;1.00
4187;DHT22;2107;52.306;10.484;2023-07-20T00:53:58;14.10;91.30
4187;DHT22;2107;52.306;10.484;2023-07-20T00:56:25;14.10;99.90
4187;DHT22;2107;52.306;10.484;2023-07-20T00:58:54;14.00;99.90
4187;DHT22;2107;52.306;10.484;2023-07-20T01:01:22;14.00;1.00
4187;DHT22;2107;52.306;10.484;2023-07-20T01:03:49;13.90;99.90
4187;DHT22;2107;52.306;10.484;2023-07-20T01:06:25;13.90;1.00
4187;DHT22;2107;52.306;10.484;2023-07-20T01:09:13;13.90;99.90
4187;DHT22;2107;52.306;10.484;2023-07-20T01:11:45;13.80;1.00
4187;DHT22;2107;52.306;10.484;2023-07-20T01:14:17;13.70;74.50
4187;DHT22;2107;52.306;10.484;2023-07-20T01:16:44;13.60;1.00
4187;DHT22;2107;52.306;10.484;2023-07-20T01:19:13;13.60;99.90
4187;DHT22;2107;52.306;10.484;2023-07-20T01:21:46;13.50;1.00
4187;DHT22;2107;52.306;10.484;2023-07-20T01:24:43;13.50;80.40
4187;DHT22;2107;52.306;10.484;2023-07-20T01:27:43;13.40;99.90
4187;DHT22;2107;52.306;10.484;2023-07-20T01:30:32;13.40;1.00
4187;DHT22;2107;52.306;10.484;2023-07-20T01:33:06;13.50;15.30
4187;DHT22;2107;52.306;10.484;2023-07-20T01:35:34;13.40;99.90
4187;DHT22;2107;52.306;10.484;2023-07-20T01:38:03;13.40;99.90
4187;DHT22;2107;52.306;10.484;2023-07-20T01:40:31;13.50;99.90
4187;DHT22;2107;52.306;10.484;2023-07-20T01:42:58;13.50;99.90
4187;DHT22;2107;52.306;10.484;2023-07-20T01:45:25;13.60;99.90
4187;DHT22;2107;52.306;10.484;2023-07-20T01:47:52;13.60;99.90
4187;DHT22;2107;52.306;10.484;2023-07-20T01:50:20;13.60;99.90
4187;DHT22;2107;52.306;10.484;2023-07-20T01:52:47;13.60;99.90
4187;DHT22;2107;52.306;10.484;2023-07-20T01:55:14;13.50;99.90
4187;DHT22;2107;52.306;10.484;2023-07-20T01:57:41;13.60;99.90
4187;DHT22;2107;52.306;10.484;2023-07-20T02:00:09;13.70;99.90
4187;DHT22;2107;52.306;10.484;2023-07-20T02:02:37;13.80;99.90
4187;DHT22;2107;52.306;10.484;2023-07-20T02:05:04;13.80;99.90
4187;DHT22;2107;52.306;10.484;2023-07-20T02:07:32;13.80;99.90
4187;DHT22;2107;52.306;10.484;2023-07-20T02:09:59;13.80;99.90
4187;DHT22;2107;52.306;10.484;2023-07-20T02:12:26;13.80;99.90
4187;DHT22;2107;52.306;10.484;2023-07-20T02:14:53;13.80;99.90
4187;DHT22;2107;52.306;10.484;2023-07-20T02:17:19;13.80;99.90
4187;DHT22;2107;52.306;10.484;2023-07-20T02:19:46;13.80;99.90
4187;DHT22;2107;52.306;10.484;2023-07-20T02:22:15;13.70;99.90
4187;DHT22;2107;52.306;10.484;2023-07-20T02:24:43;13.70;99.90
4187;DHT22;2107;52.306;10.484;2023-07-20T02:27:10;13.60;99.90
4187;DHT22;2107;52.306;10.484;2023-07-20T02:29:37;13.50;99.90
4187;DHT22;2107;52.306;10.484;2023-07-20T02:32:04;13.50;99.90
4187;DHT22;2107;52.306;10.484;2023-07-20T02:34:31;13.40;99.90
4187;DHT22;2107;52.306;10.484;2023-07-20T02:36:58;13.40;99.90
4187;DHT22;2107;52.306;10.484;2023-07-20T02:39:27;13.30;99.90
4187;DHT22;2107;52.306;10.484;2023-07-20T02:41:55;13.40;99.90
4187;DHT22;2107;52.306;10.484;2023-07-20T02:44:22;13.40;99.90
4187;DHT22;2107;52.306;10.484;2023-07-20T02:46:49;13.40;99.90
4187;DHT22;2107;52.306;10.484;2023-07-20T02:49:16;13.50;99.90
4187;DHT22;2107;52.306;10.484;2023-07-20T02:51:43;13.60;99.90
4187;DHT22;2107;52.306;10.484;2023-07-20T02:54:10;13.60;99.90
4187;DHT22;2107;52.306;10.484;2023-07-20T02:56:37;13.60;99.90
4187;DHT22;2107;52.306;10.484;2023-07-20T02:59:05;13.70;99.90
4187;DHT22;2107;52.306;10.484;2023-07-20T03:01:32;13.70;99.90
4187;DHT22;2107;52.306;10.484;2023-07-20T03:03:59;13.70;99.90
4187;DHT22;2107;52.306;10.484;2023-07-20T03:06:25;13.70;99.90
4187;DHT22;2107;52.306;10.484;2023-07-20T03:08:53;13.80;99.90
4187;DHT22;2107;52.306;10.484;2023-07-20T03:11:20;13.80;99.90
4187;DHT22;2107;52.306;10.484;2023-07-20T03:13:47;13.80;99.90
4187;DHT22;2107;52.306;10.484;2023-07-20T03:16:19;13.80;99.90
4187;DHT22;2107;52.306;10.484;2023-07-20T03:18:46;13.80;99.90
4187;DHT22;2107;52.306;10.484;2023-07-20T03:21:13;13.80;99.90
4187;DHT22;2107;52.306;10.484;2023-07-20T03:23:40;13.80;99.90
4187;DHT22;2107;52.306;10.484;2023-07-20T03:26:07;13.80;99.90
4187;DHT22;2107;52.306;10.484;2023-07-20T03:28:34;13.80;99.90
4187;DHT22;2107;52.306;10.484;2023-07-20T03:31:01;13.80;99.90
4187;DHT22;2107;52.306;10.484;2023-07-20T03:33:30;13.80;99.90
4187;DHT22;2107;52.306;10.484;2023-07-20T03:35:58;13.90;99.90
4187;DHT22;2107;52.306;10.484;2023-07-20T03:38:25;13.90;99.90
4187;DHT22;2107;52.306;10.484;2023-07-20T03:40:53;13.90;99.90
4187;DHT22;2107;52.306;10.484;2023-07-20T03:43:20;14.00;99.90
4187;DHT22;2107;52.306;10.484;2023-07-20T03:45:47;14.00;99.90
4187;DHT22;2107;52.306;10.484;2023-07-20T03:48:15;14.10;99.90
4187;DHT22;2107;52.306;10.484;2023-07-20T03:50:44;14.20;99.90
4187;DHT22;2107;52.306;10.484;2023-07-20T03:53:10;14.20;99.90
4187;DHT22;2107;52.306;10.484;2023-07-20T03:55:37;14.20;99.90
4187;DHT22;2107;52.306;10.484;2023-07-20T03:58:05;14.40;99.90
4187;DHT22;2107;52.306;10.484;2023-07-20T04:00:32;14.40;99.90
4187;DHT22;2107;52.306;10.484;2023-07-20T04:02:59;14.50;99.90
4187;DHT22;2107;52.306;10.484;2023-07-20T04:05:26;14.60;99.90
4187;DHT22;2107;52.306;10.484;2023-07-20T04:07:55;14.60;99.90
4187;DHT22;2107;52.306;10.484;2023-07-20T04:10:21;14.70;92.50
4187;DHT22;2107;52.306;10.484;2023-07-20T04:12:48;14.80;1.00
4187;DHT22;2107;52.306;10.484;2023-07-20T04:15:15;14.80;99.90
4187;DHT22;2107;52.306;10.484;2023-07-20T04:17:42;14.90;1.00
4187;DHT22;2107;52.306;10.484;2023-07-20T04:20:09;14.90;1.00
4187;DHT22;2107;52.306;10.484;2023-07-20T04:22:36;14.80;1.00
4187;DHT22;2107;52.306;10.484;2023-07-20T04:25:05;14.70;99.90
4187;DHT22;2107;52.306;10.484;2023-07-20T04:27:32;14.80;99.90
4187;DHT22;2107;52.306;10.484;2023-07-20T04:29:59;14.80;61.40
4187;DHT22;2107;52.306;10.484;2023-07-20T04:32:26;14.90;1.00
4187;DHT22;2107;52.306;10.484;2023-07-20T04:34:53;14.90;99.90
4187;DHT22;2107;52.306;10.484;2023-07-20T04:37:19;15.00;99.90
4187;DHT22;2107;52.306;10.484;2023-07-20T04:39:46;14.80;1.00
4187;DHT22;2107;52.306;10.484;2023-07-20T04:42:15;14.90;1.00
4187;DHT22;2107;52.306;10.484;2023-07-20T04:44:41;14.90;99.90
4187;DHT22;2107;52.306;10.484;2023-07-20T04:47:09;15.00;99.90
4187;DHT22;2107;52.306;10.484;2023-07-20T04:49:36;15.40;99.90
4187;DHT22;2107;52.306;10.484;2023-07-20T04:52:03;15.50;43.60
4187;DHT22;2107;52.306;10.484;2023-07-20T04:54:30;16.30;31.50
4187;DHT22;2107;52.306;10.484;2023-07-20T04:56:57;16.80;1.00
4187;DHT22;2107;52.306;10.484;2023-07-20T04:59:25;16.90;1.00
4187;DHT22;2107;52.306;10.484;2023-07-20T05:01:52;17.00;99.90
4187;DHT22;2107;52.306;10.484;2023-07-20T05:04:19;17.10;1.00
4187;DHT22;2107;52.306;10.484;2023-07-20T05:06:45;17.10;99.90
4187;DHT22;2107;52.306;10.484;2023-07-20T05:09:12;16.90;99.90
4187;DHT22;2107;52.306;10.484;2023-07-20T05:11:39;17.00;19.40
4187;DHT22;2107;52.306;10.484;2023-07-20T05:14:06;17.10;1.00
4187;DHT22;2107;52.306;10.484;2023-07-20T05:16:34;17.10;99.90
4187;DHT22;2107;52.306;10.484;2023-07-20T05:19:01;17.00;99.90
4187;DHT22;2107;52.306;10.484;2023-07-20T05:21:28;17.00;99.90
4187;DHT22;2107;52.306;10.484;2023-07-20T05:23:55;17.10;99.90
4187;DHT22;2107;52.306;10.484;2023-07-20T05:26:22;16.90;56.40
4187;DHT22;2107;52.306;10.484;2023-07-20T05:28:48;16.80;15.10
4187;DHT22;2107;52.306;10.484;2023-07-20T05:31:15;16.70;1.00
4187;DHT22;2107;52.306;10.484;2023-07-20T05:33:43;16.70;1.00
4187;DHT22;2107;52.306;10.484;2023-07-20T05:36:10;16.80;1.00
4187;DHT22;2107;52.306;10.484;2023-07-20T05:38:37;16.80;1.00
4187;DHT22;2107;52.306;10.484;2023-07-20T05:41:04;16.70;1.00
4187;DHT22;2107;52.306;10.484;2023-07-20T05:43:32;16.60;1.00
4187;DHT22;2107;52.306;10.484;2023-07-20T05:45:59;16.50;1.00
4187;DHT22;2107;52.306;10.484;2023-07-20T05:48:26;16.40;1.00
4187;DHT22;2107;52.306;10.484;2023-07-20T05:50:54;16.20;1.00
4187;DHT22;2107;52.306;10.484;2023-07-20T05:53:21;16.20;1.00
4187;DHT22;2107;52.306;10.484;2023-07-20T05:55:52;16.20;95.20
4187;DHT22;2107;52.306;10.484;2023-07-20T05:58:19;16.00;99.90
4187;DHT22;2107;52.306;10.484;2023-07-20T06:00:48;15.80;1.00
4187;DHT22;2107;52.306;10.484;2023-07-20T06:03:14;15.70;99.90
4187;DHT22;2107;52.306;10.484;2023-07-20T06:05:42;15.60;1.00
4187;DHT22;2107;52.306;10.484;2023-07-20T06:08:10;15.60;99.90
4187;DHT22;2107;52.306;10.484;2023-07-20T06:10:37;15.60;99.90
4187;DHT22;2107;52.306;10.484;2023-07-20T06:13:04;15.80;56.90
4187;DHT22;2107;52.306;10.484;2023-07-20T06:15:32;15.90;1.00
4187;DHT22;2107;52.306;10.484;2023-07-20T06:18:01;15.90;99.90
4187;DHT22;2107;52.306;10.484;2023-07-20T06:20:29;15.80;1.00
4187;DHT22;2107;52.306;10.484;2023-07-20T06:22:56;15.70;99.90
4187;DHT22;2107;52.306;10.484;2023-07-20T06:25:24;15.50;99.90
4187;DHT22;2107;52.306;10.484;2023-07-20T06:27:51;15.50;99.90
4187;DHT22;2107;52.306;10.484;2023-07-20T06:30:18;15.40;99.90
4187;DHT22;2107;52.306;10.484;2023-07-20T06:32:45;15.20;99.90
4187;DHT22;2107;52.306;10.484;2023-07-20T06:35:12;15.20;99.90
4187;DHT22;2107;52.306;10.484;2023-07-20T06:37:39;15.10;99.90
4187;DHT22;2107;52.306;10.484;2023-07-20T06:40:07;15.00;1.00
4187;DHT22;2107;52.306;10.484;2023-07-20T06:42:36;14.90;99.90
4187;DHT22;2107;52.306;10.484;2023-07-20T06:45:03;14.90;1.00
4187;DHT22;2107;52.306;10.484;2023-07-20T06:47:30;14.80;1.00
4187;DHT22;2107;52.306;10.484;2023-07-20T06:49:57;14.90;1.00
4187;DHT22;2107;52.306;10.484;2023-07-20T06:52:24;14.90;1.00
4187;DHT22;2107;52.306;10.484;2023-07-20T06:54:51;15.00;52.60
4187;DHT22;2107;52.306;10.484;2023-07-20T06:57:18;15.20;99.90
4187;DHT22;2107;52.306;10.484;2023-07-20T06:59:46;15.20;99.90
4187;DHT22;2107;52.306;10.484;2023-07-20T07:02:14;15.40;99.90
4187;DHT22;2107;52.306;10.484;2023-07-20T07:04:41;15.40;99.90
4187;DHT22;2107;52.306;10.484;2023-07-20T07:07:07;15.50;99.90
4187;DHT22;2107;52.306;10.484;2023-07-20T07:09:34;15.60;99.90
4187;DHT22;2107;52.306;10.484;2023-07-20T07:12:01;15.60;99.90
4187;DHT22;2107;52.306;10.484;2023-07-20T07:14:28;15.50;99.90
4187;DHT22;2107;52.306;10.484;2023-07-20T07:16:56;15.40;99.90
4187;DHT22;2107;52.306;10.484;2023-07-20T07:19:23;15.30;99.90
4187;DHT22;2107;52.306;10.484;2023-07-20T07:21:50;15.20;99.90
4187;DHT22;2107;52.306;10.484;2023-07-20T07:24:17;15.20;99.90
4187;DHT22;2107;52.306;10.484;2023-07-20T07:26:44;15.10;99.90
4187;DHT22;2107;52.306;10.484;2023-07-20T07:29:10;15.20;99.90
4187;DHT22;2107;52.306;10.484;2023-07-20T07:31:37;15.50;99.90
4187;DHT22;2107;52.306;10.484;2023-07-20T07:34:05;15.60;99.90
4187;DHT22;2107;52.306;10.484;2023-07-20T07:36:33;15.60;99.90
4187;DHT22;2107;52.306;10.484;2023-07-20T07:39:00;15.40;99.90
4187;DHT22;2107;52.306;10.484;2023-07-20T07:41:27;15.60;99.90
4187;DHT22;2107;52.306;10.484;2023-07-20T07:43:53;15.80;99.90
4187;DHT22;2107;52.306;10.484;2023-07-20T07:46:20;16.00;99.90
4187;DHT22;2107;52.306;10.484;2023-07-20T07:48:47;16.20;99.90
4187;DHT22;2107;52.306;10.484;2023-07-20T07:51:16;16.10;99.90
4187;DHT22;2107;52.306;10.484;2023-07-20T07:53:43;16.40;99.90
4187;DHT22;2107;52.306;10.484;2023-07-20T07:56:10;16.60;99.90
4187;DHT22;2107;52.306;10.484;2023-07-20T07:58:37;16.80;99.90
4187;DHT22;2107;52.306;10.484;2023-07-20T08:01:04;17.40;99.90
4187;DHT22;2107;52.306;10.484;2023-07-20T08:03:30;18.00;1.00
4187;DHT22;2107;52.306;10.484;2023-07-20T08:05:57;18.40;99.90
4187;DHT22;2107;52.306;10.484;2023-07-20T08:08:26;18.40;99.90
4187;DHT22;2107;52.306;10.484;2023-07-20T08:10:54;18.60;99.90
4187;DHT22;2107;52.306;10.484;2023-07-20T08:13:21;18.70;99.90
4187;DHT22;2107;52.306;10.484;2023-07-20T08:15:50;19.30;97.10
4187;DHT22;2107;52.306;10.484;2023-07-20T08:18:17;19.70;99.90
4187;DHT22;2107;52.306;10.484;2023-07-20T08:20:44;19.80;99.90
4187;DHT22;2107;52.306;10.484;2023-07-20T08:23:11;20.00;99.90
4187;DHT22;2107;52.306;10.484;2023-07-20T08:25:39;20.50;99.90
4187;DHT22;2107;52.306;10.484;2023-07-20T08:28:09;21.00;99.90
4187;DHT22;2107;52.306;10.484;2023-07-20T08:30:43;21.40;99.90
4187;DHT22;2107;52.306;10.484;2023-07-20T08:33:10;21.40;99.90
4187;DHT22;2107;52.306;10.484;2023-07-20T08:35:37;21.60;99.90
4187;DHT22;2107;52.306;10.484;2023-07-20T08:38:04;22.10;99.90
4187;DHT22;2107;52.306;10.484;2023-07-20T08:40:31;21.80;99.90
4187;DHT22;2107;52.306;10.484;2023-07-20T08:43:00;21.40;99.90
4187;DHT22;2107;52.306;10.484;2023-07-20T08:45:28;20.90;99.90
4187;DHT22;2107;52.306;10.484;2023-07-20T08:47:57;20.70;99.90
4187;DHT22;2107;52.306;10.484;2023-07-20T08:50:25;20.90;99.90
4187;DHT22;2107;52.306;10.484;2023-07-20T08:52:56;21.50;99.90
4187;DHT22;2107;52.306;10.484;2023-07-20T08:55:23;22.20;99.90
4187;DHT22;2107;52.306;10.484;2023-07-20T08:57:53;22.70;99.90
4187;DHT22;2107;52.306;10.484;2023-07-20T09:00:22;23.10;99.90
4187;DHT22;2107;52.306;10.484;2023-07-20T09:02:50;23.00;99.90
4187;DHT22;2107;52.306;10.484;2023-07-20T09:05:18;22.70;99.90
4187;DHT22;2107;52.306;10.484;2023-07-20T09:07:45;23.10;99.90
4187;DHT22;2107;52.306;10.484;2023-07-20T09:10:12;23.50;99.90
4187;DHT22;2107;52.306;10.484;2023-07-20T09:12:40;24.60;99.90
4187;DHT22;2107;52.306;10.484;2023-07-20T09:15:08;25.20;99.90
4187;DHT22;2107;52.306;10.484;2023-07-20T09:17:37;25.00;99.90
4187;DHT22;2107;52.306;10.484;2023-07-20T09:20:06;24.70;99.90
4187;DHT22;2107;52.306;10.484;2023-07-20T09:22:36;24.60;99.90
4187;DHT22;2107;52.306;10.484;2023-07-20T09:25:06;24.20;99.90
4187;DHT22;2107;52.306;10.484;2023-07-20T09:27:36;24.10;99.90
4187;DHT22;2107;52.306;10.484;2023-07-20T09:30:04;23.60;99.90
4187;DHT22;2107;52.306;10.484;2023-07-20T09:32:40;23.20;99.90
4187;DHT22;2107;52.306;10.484;2023-07-20T09:35:13;24.10;99.90
4187;DHT22;2107;52.306;10.484;2023-07-20T09:37:42;24.80;98.90
4187;DHT22;2107;52.306;10.484;2023-07-20T09:40:15;25.30;97.40
4187;DHT22;2107;52.306;10.484;2023-07-20T09:42:41;26.00;97.40
4187;DHT22;2107;52.306;10.484;2023-07-20T09:45:09;25.10;97.50
4187;DHT22;2107;52.306;10.484;2023-07-20T09:47:38;24.60;97.00
4187;DHT22;2107;52.306;10.484;2023-07-20T09:50:07;24.40;97.50
4187;DHT22;2107;52.306;10.484;2023-07-20T09:52:38;24.80;98.80
4187;DHT22;2107;52.306;10.484;2023-07-20T09:55:06;25.30;96.40
4187;DHT22;2107;52.306;10.484;2023-07-20T09:57:34;26.00;93.30
4187;DHT22;2107;52.306;10.484;2023-07-20T10:00:01;26.40;90.00
4187;DHT22;2107;52.306;10.484;2023-07-20T10:02:33;26.20;85.40
4187;DHT22;2107;52.306;10.484;2023-07-20T10:05:03;24.20;83.30
4187;DHT22;2107;52.306;10.484;2023-07-20T10:07:32;25.40;89.30
4187;DHT22;2107;52.306;10.484;2023-07-20T10:10:02;26.50;89.70
4187;DHT22;2107;52.306;10.484;2023-07-20T10:12:31;27.10;81.90
4187;DHT22;2107;52.306;10.484;2023-07-20T10:15:07;27.20;80.50
4187;DHT22;2107;52.306;10.484;2023-07-20T10:17:37;27.00;76.50
4187;DHT22;2107;52.306;10.484;2023-07-20T10:20:07;25.30;72.70
4187;DHT22;2107;52.306;10.484;2023-07-20T10:22:37;24.90;79.30
4187;DHT22;2107;52.306;10.484;2023-07-20T10:25:05;24.80;78.50
4187;DHT22;2107;52.306;10.484;2023-07-20T10:27:34;25.10;81.70
4187;DHT22;2107;52.306;10.484;2023-07-20T10:30:01;25.30;80.20
4187;DHT22;2107;52.306;10.484;2023-07-20T10:32:30;25.60;76.80
4187;DHT22;2107;52.306;10.484;2023-07-20T10:34:57;26.20;73.40
4187;DHT22;2107;52.306;10.484;2023-07-20T10:37:47;26.60;74.10
4187;DHT22;2107;52.306;10.484;2023-07-20T10:40:25;27.20;69.50
4187;DHT22;2107;52.306;10.484;2023-07-20T10:42:57;27.40;70.30
4187;DHT22;2107;52.306;10.484;2023-07-20T10:45:33;28.00;69.10
4187;DHT22;2107;52.306;10.484;2023-07-20T10:48:03;28.10;67.00
4187;DHT22;2107;52.306;10.484;2023-07-20T10:50:30;27.50;66.40
4187;DHT22;2107;52.306;10.484;2023-07-20T10:53:10;26.50;66.90
4187;DHT22;2107;52.306;10.484;2023-07-20T10:55:38;26.50;71.40
4187;DHT22;2107;52.306;10.484;2023-07-20T10:58:09;26.70;68.70
4187;DHT22;2107;52.306;10.484;2023-07-20T11:00:37;26.50;67.20
4187;DHT22;2107;52.306;10.484;2023-07-20T11:03:04;26.30;67.80
4187;DHT22;2107;52.306;10.484;2023-07-20T11:05:39;26.00;68.40
4187;DHT22;2107;52.306;10.484;2023-07-20T11:08:10;25.50;69.30
4187;DHT22;2107;52.306;10.484;2023-07-20T11:10:38;25.40;69.60
4187;DHT22;2107;52.306;10.484;2023-07-20T11:13:19;25.40;69.50
4187;DHT22;2107;52.306;10.484;2023-07-20T11:15:47;25.60;69.60
4187;DHT22;2107;52.306;10.484;2023-07-20T11:18:14;25.50;70.10
4187;DHT22;2107;52.306;10.484;2023-07-20T11:20:41;25.50;70.60
4187;DHT22;2107;52.306;10.484;2023-07-20T11:23:10;25.30;70.50
4187;DHT22;2107;52.306;10.484;2023-07-20T11:25:38;25.00;69.70
4187;DHT22;2107;52.306;10.484;2023-07-20T11:28:09;24.80;71.60
4187;DHT22;2107;52.306;10.484;2023-07-20T11:30:36;24.40;70.50
4187;DHT22;2107;52.306;10.484;2023-07-20T11:33:04;24.10;72.40
4187;DHT22;2107;52.306;10.484;2023-07-20T11:35:34;24.40;73.20
4187;DHT22;2107;52.306;10.484;2023-07-20T11:38:02;24.60;72.80
4187;DHT22;2107;52.306;10.484;2023-07-20T11:40:30;25.20;71.00
4187;DHT22;2107;52.306;10.484;2023-07-20T11:42:57;25.20;68.90
4187;DHT22;2107;52.306;10.484;2023-07-20T11:45:25;25.30;69.00
4187;DHT22;2107;52.306;10.484;2023-07-20T11:47:53;25.10;70.20
4187;DHT22;2107;52.306;10.484;2023-07-20T11:50:20;24.70;69.50
4187;DHT22;2107;52.306;10.484;2023-07-20T11:52:46;24.40;70.20
4187;DHT22;2107;52.306;10.484;2023-07-20T11:55:13;24.40;70.30
4187;DHT22;2107;52.306;10.484;2023-07-20T11:58:00;24.50;70.00
4187;DHT22;2107;52.306;10.484;2023-07-20T12:00:27;24.90;68.30
4187;DHT22;2107;52.306;10.484;2023-07-20T12:02:54;25.30;68.30
4187;DHT22;2107;52.306;10.484;2023-07-20T12:05:22;24.90;67.80
4187;DHT22;2107;52.306;10.484;2023-07-20T12:07:52;24.40;68.70
4187;DHT22;2107;52.306;10.484;2023-07-20T12:10:24;24.30;69.80
4187;DHT22;2107;52.306;10.484;2023-07-20T12:12:53;24.40;68.50
4187;DHT22;2107;52.306;10.484;2023-07-20T12:15:21;24.50;70.20
4187;DHT22;2107;52.306;10.484;2023-07-20T12:17:51;24.90;71.50
4187;DHT22;2107;52.306;10.484;2023-07-20T12:20:28;25.30;71.00
4187;DHT22;2107;52.306;10.484;2023-07-20T12:23:00;25.60;69.00
4187;DHT22;2107;52.306;10.484;2023-07-20T12:25:36;25.90;68.30
4187;DHT22;2107;52.306;10.484;2023-07-20T12:28:06;25.80;67.80
4187;DHT22;2107;52.306;10.484;2023-07-20T12:30:33;25.90;65.90
4187;DHT22;2107;52.306;10.484;2023-07-20T12:33:00;26.40;65.70
4187;DHT22;2107;52.306;10.484;2023-07-20T12:35:29;26.10;62.50
4187;DHT22;2107;52.306;10.484;2023-07-20T12:37:55;25.80;64.40
4187;DHT22;2107;52.306;10.484;2023-07-20T12:40:22;25.90;65.30
4187;DHT22;2107;52.306;10.484;2023-07-20T12:42:49;25.90;66.20
4187;DHT22;2107;52.306;10.484;2023-07-20T12:45:18;26.00;62.00
4187;DHT22;2107;52.306;10.484;2023-07-20T12:47:45;26.30;64.70
4187;DHT22;2107;52.306;10.484;2023-07-20T12:50:12;27.30;63.60
4187;DHT22;2107;52.306;10.484;2023-07-20T12:52:40;27.80;58.50
4187;DHT22;2107;52.306;10.484;2023-07-20T12:55:08;28.60;58.70
4187;DHT22;2107;52.306;10.484;2023-07-20T12:57:35;29.50;58.40
4187;DHT22;2107;52.306;10.484;2023-07-20T13:00:03;29.80;56.70
4187;DHT22;2107;52.306;10.484;2023-07-20T13:02:32;29.70;55.50
4187;DHT22;2107;52.306;10.484;2023-07-20T13:04:59;30.60;55.30
4187;DHT22;2107;52.306;10.484;2023-07-20T13:07:30;29.90;52.50
4187;DHT22;2107;52.306;10.484;2023-07-20T13:09:57;29.90;50.70
4187;DHT22;2107;52.306;10.484;2023-07-20T13:12:25;30.40;49.00
4187;DHT22;2107;52.306;10.484;2023-07-20T13:14:52;30.50;50.00
4187;DHT22;2107;52.306;10.484;2023-07-20T13:17:19;29.10;50.00
4187;DHT22;2107;52.306;10.484;2023-07-20T13:19:48;28.90;49.00
4187;DHT22;2107;52.306;10.484;2023-07-20T13:22:15;28.80;49.60
4187;DHT22;2107;52.306;10.484;2023-07-20T13:24:43;28.50;49.50
4187;DHT22;2107;52.306;10.484;2023-07-20T13:27:10;27.70;50.70
4187;DHT22;2107;52.306;10.484;2023-07-20T13:29:37;27.10;51.60
4187;DHT22;2107;52.306;10.484;2023-07-20T13:32:05;26.60;51.80
4187;DHT22;2107;52.306;10.484;2023-07-20T13:34:32;26.20;53.00
4187;DHT22;2107;52.306;10.484;2023-07-20T13:37:00;25.70;54.30
4187;DHT22;2107;52.306;10.484;2023-07-20T13:39:27;27.00;53.50
4187;DHT22;2107;52.306;10.484;2023-07-20T13:41:54;29.20;54.30
4187;DHT22;2107;52.306;10.484;2023-07-20T13:44:21;30.80;50.00
4187;DHT22;2107;52.306;10.484;2023-07-20T13:46:48;29.40;48.40
4187;DHT22;2107;52.306;10.484;2023-07-20T13:49:15;28.60;50.30
4187;DHT22;2107;52.306;10.484;2023-07-20T13:51:42;27.70;52.60
4187;DHT22;2107;52.306;10.484;2023-07-20T13:54:11;26.90;54.10
4187;DHT22;2107;52.306;10.484;2023-07-20T13:56:38;25.70;54.60
4187;DHT22;2107;52.306;10.484;2023-07-20T13:59:05;25.60;56.10
4187;DHT22;2107;52.306;10.484;2023-07-20T14:01:31;25.60;55.80
4187;DHT22;2107;52.306;10.484;2023-07-20T14:03:59;27.70;56.00
4187;DHT22;2107;52.306;10.484;2023-07-20T14:08:55;31.10;48.30
4187;DHT22;2107;52.306;10.484;2023-07-20T14:11:24;33.00;46.80
4187;DHT22;2107;52.306;10.484;2023-07-20T14:13:51;33.00;41.20
4187;DHT22;2107;52.306;10.484;2023-07-20T14:16:18;31.30;41.70
4187;DHT22;2107;52.306;10.484;2023-07-20T14:18:45;29.30;44.10
4187;DHT22;2107;52.306;10.484;2023-07-20T14:21:14;28.00;45.20
4187;DHT22;2107;52.306;10.484;2023-07-20T14:23:41;27.00;47.30
4187;DHT22;2107;52.306;10.484;2023-07-20T14:26:07;25.80;46.40
4187;DHT22;2107;52.306;10.484;2023-07-20T14:28:36;25.40;47.10
4187;DHT22;2107;52.306;10.484;2023-07-20T14:31:03;24.80;46.90
4187;DHT22;2107;52.306;10.484;2023-07-20T14:33:30;24.70;48.10
4187;DHT22;2107;52.306;10.484;2023-07-20T14:35:57;24.80;49.50
4187;DHT22;2107;52.306;10.484;2023-07-20T14:38:24;24.90;50.10
4187;DHT22;2107;52.306;10.484;2023-07-20T14:40:51;25.60;50.90
4187;DHT22;2107;52.306;10.484;2023-07-20T14:43:18;27.70;48.50
4187;DHT22;2107;52.306;10.484;2023-07-20T14:45:46;27.10;47.40
4187;DHT22;2107;52.306;10.484;2023-07-20T14:48:13;26.60;47.30
4187;DHT22;2107;52.306;10.484;2023-07-20T14:50:40;26.00;50.90
4187;DHT22;2107;52.306;10.484;2023-07-20T14:53:08;25.80;52.10
4187;DHT22;2107;52.306;10.484;2023-07-20T14:55:34;25.70;53.30
4187;DHT22;2107;52.306;10.484;2023-07-20T14:58:01;25.50;53.80
4187;DHT22;2107;52.306;10.484;2023-07-20T15:00:28;25.10;54.20
4187;DHT22;2107;52.306;10.484;2023-07-20T15:02:57;25.00;54.90
4187;DHT22;2107;52.306;10.484;2023-07-20T15:05:24;25.30;55.10
4187;DHT22;2107;52.306;10.484;2023-07-20T15:07:52;25.90;54.40
4187;DHT22;2107;52.306;10.484;2023-07-20T15:10:20;25.80;55.20
4187;DHT22;2107;52.306;10.484;2023-07-20T15:12:47;25.50;55.80
4187;DHT22;2107;52.306;10.484;2023-07-20T15:15:14;25.20;55.90
4187;DHT22;2107;52.306;10.484;2023-07-20T15:17:43;24.90;56.30
4187;DHT22;2107;52.306;10.484;2023-07-20T15:20:13;24.80;55.70
4187;DHT22;2107;52.306;10.484;2023-07-20T15:22:40;24.70;56.00
4187;DHT22;2107;52.306;10.484;2023-07-20T15:25:08;24.70;56.20
4187;DHT22;2107;52.306;10.484;2023-07-20T15:27:37;25.00;56.80
4187;DHT22;2107;52.306;10.484;2023-07-20T15:30:05;26.10;55.00
4187;DHT22;2107;52.306;10.484;2023-07-20T15:32:32;26.10;53.70
4187;DHT22;2107;52.306;10.484;2023-07-20T15:34:59;25.60;54.60
4187;DHT22;2107;52.306;10.484;2023-07-20T15:37:27;25.20;55.90
4187;DHT22;2107;52.306;10.484;2023-07-20T15:39:54;24.50;56.00
4187;DHT22;2107;52.306;10.484;2023-07-20T15:42:21;24.00;57.90
4187;DHT22;2107;52.306;10.484;2023-07-20T15:44:48;23.40;58.20
4187;DHT22;2107;52.306;10.484;2023-07-20T15:47:15;23.10;58.20
4187;DHT22;2107;52.306;10.484;2023-07-20T15:49:43;22.90;59.50
4187;DHT22;2107;52.306;10.484;2023-07-20T15:52:09;22.50;59.90
4187;DHT22;2107;52.306;10.484;2023-07-20T15:54:40;22.80;61.60
4187;DHT22;2107;52.306;10.484;2023-07-20T15:57:07;25.30;58.70